sensor_id;sensor_type;location;lat;lon;timestamp;temperature;humidity
3190;DHT22;1606;51.946;10.558;2024-01-07T00:01:46;4.00;99.90
3190;DHT22;1606;51.946;10.558;2024-01-07T00:04:15;4.00;99.90
3190;DHT22;1606;51.946;10.558;2024-01-07T00:06:43;4.10;99.90
3190;DHT22;1606;51.946;10.558;2024-01-07T00:09:11;4.10;99.90
3190;DHT22;1606;51.946;10.558;2024-01-07T00:11:40;4.00;99.90
3190;DHT22;1606;51.946;10.558;2024-01-07T00:14:08;4.00;99.90
3190;DHT22;1606;51.946;10.558;2024-01-07T00:16:37;4.10;99.90
3190;DHT22;1606;51.946;10.558;2024-01-07T00:19:05;4.00;99.90
3190;DHT22;1606;51.946;10.558;2024-01-07T00:21:33;4.00;99.90
3190;DHT22;1606;51.946;10.558;2024-01-07T00:24:01;4.00;99.90
3190;DHT22;1606;51.946;10.558;2024-01-07T00:26:29;4.00;99.90
3190;DHT22;1606;51.946;10.558;2024-01-07T00:28:56;4.10;99.90
3190;DHT22;1606;51.946;10.558;2024-01-07T00:31:24;4.00;99.90
3190;DHT22;1606;51.946;10.558;2024-01-07T00:33:54;4.00;99.90
3190;DHT22;1606;51.946;10.558;2024-01-07T00:36:22;3.90;99.90
3190;DHT22;1606;51.946;10.558;2024-01-07T00:38:50;3.80;99.90
3190;DHT22;1606;51.946;10.558;2024-01-07T00:41:17;3.90;99.90
3190;DHT22;1606;51.946;10.558;2024-01-07T00:43:45;3.90;99.90
3190;DHT22;1606;51.946;10.558;2024-01-07T00:46:13;3.90;99.90
3190;DHT22;1606;51.946;10.558;2024-01-07T00:48:41;3.80;99.90
3190;DHT22;1606;51.946;10.558;2024-01-07T00:51:11;3.90;99.90
3190;DHT22;1606;51.946;10.558;2024-01-07T00:53:38;3.80;99.90
3190;DHT22;1606;51.946;10.558;2024-01-07T00:56:06;3.70;99.90
3190;DHT22;1606;51.946;10.558;2024-01-07T00:58:36;3.80;99.90
3190;DHT22;1606;51.946;10.558;2024-01-07T01:01:03;3.90;99.90
3190;DHT22;1606;51.946;10.558;2024-01-07T01:03:31;3.70;99.90
3190;DHT22;1606;51.946;10.558;2024-01-07T01:05:59;3.50;99.90
3190;DHT22;1606;51.946;10.558;2024-01-07T01:08:30;3.50;99.90
3190;DHT22;1606;51.946;10.558;2024-01-07T01:10:58;3.30;99.90
3190;DHT22;1606;51.946;10.558;2024-01-07T01:13:26;3.30;99.90
3190;DHT22;1606;51.946;10.558;2024-01-07T01:15:53;3.30;99.90
3190;DHT22;1606;51.946;10.558;2024-01-07T01:18:22;3.30;99.90
3190;DHT22;1606;51.946;10.558;2024-01-07T01:20:50;3.30;99.90
3190;DHT22;1606;51.946;10.558;2024-01-07T01:23:17;3.50;99.90
3190;DHT22;1606;51.946;10.558;2024-01-07T01:25:47;3.40;99.90
3190;DHT22;1606;51.946;10.558;2024-01-07T01:28:14;3.40;99.90
3190;DHT22;1606;51.946;10.558;2024-01-07T01:30:42;3.40;99.90
3190;DHT22;1606;51.946;10.558;2024-01-07T01:33:10;3.50;99.90
3190;DHT22;1606;51.946;10.558;2024-01-07T01:35:38;3.50;99.90
3190;DHT22;1606;51.946;10.558;2024-01-07T01:38:06;3.40;99.90
3190;DHT22;1606;51.946;10.558;2024-01-07T01:40:34;3.50;99.90
3190;DHT22;1606;51.946;10.558;2024-01-07T01:43:03;3.40;99.90
3190;DHT22;1606;51.946;10.558;2024-01-07T01:45:31;3.40;99.90
3190;DHT22;1606;51.946;10.558;2024-01-07T01:47:59;3.50;99.90
3190;DHT22;1606;51.946;10.558;2024-01-07T01:50:28;3.60;99.90
3190;DHT22;1606;51.946;10.558;2024-01-07T01:52:56;3.40;99.90
3190;DHT22;1606;51.946;10.558;2024-01-07T01:55:24;3.50;99.90
3190;DHT22;1606;51.946;10.558;2024-01-07T01:57:53;3.40;99.90
3190;DHT22;1606;51.946;10.558;2024-01-07T02:00:23;3.40;99.90
3190;DHT22;1606;51.946;10.558;2024-01-07T02:02:50;3.60;99.90
3190;DHT22;1606;51.946;10.558;2024-01-07T02:05:18;3.60;99.90
3190;DHT22;1606;51.946;10.558;2024-01-07T02:07:47;3.60;99.90
3190;DHT22;1606;51.946;10.558;2024-01-07T02:10:15;3.50;99.90
3190;DHT22;1606;51.946;10.558;2024-01-07T02:12:43;3.40;99.90
3190;DHT22;1606;51.946;10.558;2024-01-07T02:15:11;3.30;99.90
3190;DHT22;1606;51.946;10.558;2024-01-07T02:17:40;3.30;99.90
3190;DHT22;1606;51.946;10.558;2024-01-07T02:20:09;3.20;99.90
3190;DHT22;1606;51.946;10.558;2024-01-07T02:22:37;3.10;99.90
3190;DHT22;1606;51.946;10.558;2024-01-07T02:25:07;3.00;99.90
3190;DHT22;1606;51.946;10.558;2024-01-07T02:27:35;2.90;99.90
3190;DHT22;1606;51.946;10.558;2024-01-07T02:30:04;2.80;99.90
3190;DHT22;1606;51.946;10.558;2024-01-07T02:32:32;2.80;99.90
3190;DHT22;1606;51.946;10.558;2024-01-07T02:35:02;2.70;99.90
3190;DHT22;1606;51.946;10.558;2024-01-07T02:37:30;2.70;99.90
3190;DHT22;1606;51.946;10.558;2024-01-07T02:39:57;2.70;99.90
3190;DHT22;1606;51.946;10.558;2024-01-07T02:42:29;2.60;99.90
3190;DHT22;1606;51.946;10.558;2024-01-07T02:44:57;2.60;99.90
3190;DHT22;1606;51.946;10.558;2024-01-07T02:47:24;2.50;99.90
3190;DHT22;1606;51.946;10.558;2024-01-07T02:49:52;2.60;99.90
3190;DHT22;1606;51.946;10.558;2024-01-07T02:52:20;2.70;99.90
3190;DHT22;1606;51.946;10.558;2024-01-07T02:54:48;2.70;99.90
3190;DHT22;1606;51.946;10.558;2024-01-07T02:57:16;2.70;99.90
3190;DHT22;1606;51.946;10.558;2024-01-07T02:59:46;2.80;99.90
3190;DHT22;1606;51.946;10.558;2024-01-07T03:02:13;3.00;99.90
3190;DHT22;1606;51.946;10.558;2024-01-07T03:04:43;3.00;99.90
3190;DHT22;1606;51.946;10.558;2024-01-07T03:07:11;3.00;99.90
3190;DHT22;1606;51.946;10.558;2024-01-07T03:09:39;2.70;99.90
3190;DHT22;1606;51.946;10.558;2024-01-07T03:12:07;2.70;99.90
3190;DHT22;1606;51.946;10.558;2024-01-07T03:14:35;2.70;99.90
3190;DHT22;1606;51.946;10.558;2024-01-07T03:17:04;2.60;99.90
3190;DHT22;1606;51.946;10.558;2024-01-07T03:19:32;2.70;99.90
3190;DHT22;1606;51.946;10.558;2024-01-07T03:22:00;2.80;99.90
3190;DHT22;1606;51.946;10.558;2024-01-07T03:24:28;2.90;99.90
3190;DHT22;1606;51.946;10.558;2024-01-07T03:26:56;3.00;99.90
3190;DHT22;1606;51.946;10.558;2024-01-07T03:29:23;2.90;99.90
3190;DHT22;1606;51.946;10.558;2024-01-07T03:31:51;2.50;99.90
3190;DHT22;1606;51.946;10.558;2024-01-07T03:34:21;2.60;99.90
3190;DHT22;1606;51.946;10.558;2024-01-07T03:36:49;2.50;99.90
3190;DHT22;1606;51.946;10.558;2024-01-07T03:39:17;2.50;99.90
3190;DHT22;1606;51.946;10.558;2024-01-07T03:41:45;2.60;99.90
3190;DHT22;1606;51.946;10.558;2024-01-07T03:44:13;2.50;99.90
3190;DHT22;1606;51.946;10.558;2024-01-07T03:46:41;2.30;99.90
3190;DHT22;1606;51.946;10.558;2024-01-07T03:49:09;2.30;99.90
3190;DHT22;1606;51.946;10.558;2024-01-07T03:51:38;2.30;99.90
3190;DHT22;1606;51.946;10.558;2024-01-07T03:54:07;2.40;99.90
3190;DHT22;1606;51.946;10.558;2024-01-07T03:56:34;2.40;99.90
3190;DHT22;1606;51.946;10.558;2024-01-07T03:59:02;2.40;99.90
3190;DHT22;1606;51.946;10.558;2024-01-07T04:01:30;2.40;99.90
3190;DHT22;1606;51.946;10.558;2024-01-07T04:03:58;2.50;99.90
3190;DHT22;1606;51.946;10.558;2024-01-07T04:06:26;2.50;99.90
3190;DHT22;1606;51.946;10.558;2024-01-07T04:08:55;2.50;99.90
3190;DHT22;1606;51.946;10.558;2024-01-07T04:11:23;2.60;99.90
3190;DHT22;1606;51.946;10.558;2024-01-07T04:13:51;2.70;99.90
3190;DHT22;1606;51.946;10.558;2024-01-07T04:16:19;2.60;99.90
3190;DHT22;1606;51.946;10.558;2024-01-07T04:18:47;2.60;99.90
3190;DHT22;1606;51.946;10.558;2024-01-07T04:21:20;2.50;99.90
3190;DHT22;1606;51.946;10.558;2024-01-07T04:23:48;2.60;99.90
3190;DHT22;1606;51.946;10.558;2024-01-07T04:26:17;2.60;99.90
3190;DHT22;1606;51.946;10.558;2024-01-07T04:28:45;2.60;99.90
3190;DHT22;1606;51.946;10.558;2024-01-07T04:31:12;2.50;99.90
3190;DHT22;1606;51.946;10.558;2024-01-07T04:33:40;2.40;99.90
3190;DHT22;1606;51.946;10.558;2024-01-07T04:36:08;2.40;99.90
3190;DHT22;1606;51.946;10.558;2024-01-07T04:38:36;2.50;99.90
3190;DHT22;1606;51.946;10.558;2024-01-07T04:41:04;2.50;99.90
3190;DHT22;1606;51.946;10.558;2024-01-07T04:43:35;2.60;99.90
3190;DHT22;1606;51.946;10.558;2024-01-07T04:46:03;2.60;99.90
3190;DHT22;1606;51.946;10.558;2024-01-07T04:48:31;2.50;99.90
3190;DHT22;1606;51.946;10.558;2024-01-07T04:50:59;2.40;99.90
3190;DHT22;1606;51.946;10.558;2024-01-07T04:53:27;2.50;99.90
3190;DHT22;1606;51.946;10.558;2024-01-07T04:55:55;2.70;99.90
3190;DHT22;1606;51.946;10.558;2024-01-07T04:58:23;2.60;99.90
3190;DHT22;1606;51.946;10.558;2024-01-07T05:00:52;2.50;99.90
3190;DHT22;1606;51.946;10.558;2024-01-07T05:03:20;2.60;99.90
3190;DHT22;1606;51.946;10.558;2024-01-07T05:05:48;2.50;99.90
3190;DHT22;1606;51.946;10.558;2024-01-07T05:08:16;2.30;99.90
3190;DHT22;1606;51.946;10.558;2024-01-07T05:10:44;2.40;99.90
3190;DHT22;1606;51.946;10.558;2024-01-07T05:13:12;2.10;99.90
3190;DHT22;1606;51.946;10.558;2024-01-07T05:15:39;2.00;99.90
3190;DHT22;1606;51.946;10.558;2024-01-07T05:18:09;1.90;99.90
3190;DHT22;1606;51.946;10.558;2024-01-07T05:20:37;2.00;99.90
3190;DHT22;1606;51.946;10.558;2024-01-07T05:23:05;2.00;99.90
3190;DHT22;1606;51.946;10.558;2024-01-07T05:25:33;2.00;99.90
3190;DHT22;1606;51.946;10.558;2024-01-07T05:28:00;1.90;99.90
3190;DHT22;1606;51.946;10.558;2024-01-07T05:30:28;2.10;99.90
3190;DHT22;1606;51.946;10.558;2024-01-07T05:32:56;1.90;99.90
3190;DHT22;1606;51.946;10.558;2024-01-07T05:35:25;2.10;99.90
3190;DHT22;1606;51.946;10.558;2024-01-07T05:37:53;2.10;99.90
3190;DHT22;1606;51.946;10.558;2024-01-07T05:40:22;2.10;99.90
3190;DHT22;1606;51.946;10.558;2024-01-07T05:42:50;2.10;99.90
3190;DHT22;1606;51.946;10.558;2024-01-07T05:45:17;2.00;99.90
3190;DHT22;1606;51.946;10.558;2024-01-07T05:47:45;2.00;99.90
3190;DHT22;1606;51.946;10.558;2024-01-07T05:50:13;2.10;99.90
3190;DHT22;1606;51.946;10.558;2024-01-07T05:52:44;2.20;99.90
3190;DHT22;1606;51.946;10.558;2024-01-07T05:55:12;2.10;99.90
3190;DHT22;1606;51.946;10.558;2024-01-07T05:57:40;2.00;99.90
3190;DHT22;1606;51.946;10.558;2024-01-07T06:00:08;2.20;99.90
3190;DHT22;1606;51.946;10.558;2024-01-07T06:02:38;2.20;99.90
3190;DHT22;1606;51.946;10.558;2024-01-07T06:05:06;1.90;99.90
3190;DHT22;1606;51.946;10.558;2024-01-07T06:07:34;1.90;99.90
3190;DHT22;1606;51.946;10.558;2024-01-07T06:10:04;1.90;99.90
3190;DHT22;1606;51.946;10.558;2024-01-07T06:12:33;1.90;99.90
3190;DHT22;1606;51.946;10.558;2024-01-07T06:15:00;2.10;99.90
3190;DHT22;1606;51.946;10.558;2024-01-07T06:17:28;2.10;99.90
3190;DHT22;1606;51.946;10.558;2024-01-07T06:19:56;2.10;99.90
3190;DHT22;1606;51.946;10.558;2024-01-07T06:22:24;1.90;99.90
3190;DHT22;1606;51.946;10.558;2024-01-07T06:24:52;1.70;99.90
3190;DHT22;1606;51.946;10.558;2024-01-07T06:27:21;1.80;99.90
3190;DHT22;1606;51.946;10.558;2024-01-07T06:29:49;1.90;99.90
3190;DHT22;1606;51.946;10.558;2024-01-07T06:32:17;2.00;99.90
3190;DHT22;1606;51.946;10.558;2024-01-07T06:34:44;1.90;99.90
3190;DHT22;1606;51.946;10.558;2024-01-07T06:37:13;2.00;99.90
3190;DHT22;1606;51.946;10.558;2024-01-07T06:39:41;1.80;99.90
3190;DHT22;1606;51.946;10.558;2024-01-07T06:42:09;1.80;99.90
3190;DHT22;1606;51.946;10.558;2024-01-07T06:44:38;1.60;99.90
3190;DHT22;1606;51.946;10.558;2024-01-07T06:47:05;1.50;99.90
3190;DHT22;1606;51.946;10.558;2024-01-07T06:49:33;1.50;99.90
3190;DHT22;1606;51.946;10.558;2024-01-07T06:52:01;1.60;99.90
3190;DHT22;1606;51.946;10.558;2024-01-07T06:54:29;1.40;99.90
3190;DHT22;1606;51.946;10.558;2024-01-07T06:56:57;1.40;99.90
3190;DHT22;1606;51.946;10.558;2024-01-07T06:59:25;1.40;99.90
3190;DHT22;1606;51.946;10.558;2024-01-07T07:01:54;1.60;99.90
3190;DHT22;1606;51.946;10.558;2024-01-07T07:04:23;1.70;99.90
3190;DHT22;1606;51.946;10.558;2024-01-07T07:06:51;1.70;99.90
3190;DHT22;1606;51.946;10.558;2024-01-07T07:09:20;1.80;99.90
3190;DHT22;1606;51.946;10.558;2024-01-07T07:11:47;1.70;99.90
3190;DHT22;1606;51.946;10.558;2024-01-07T07:14:15;1.70;99.90
3190;DHT22;1606;51.946;10.558;2024-01-07T07:16:43;1.90;99.90
3190;DHT22;1606;51.946;10.558;2024-01-07T07:19:12;1.70;99.90
3190;DHT22;1606;51.946;10.558;2024-01-07T07:21:42;1.50;99.90
3190;DHT22;1606;51.946;10.558;2024-01-07T07:24:11;1.50;99.90
3190;DHT22;1606;51.946;10.558;2024-01-07T07:26:38;1.60;99.90
3190;DHT22;1606;51.946;10.558;2024-01-07T07:29:07;1.40;99.90
3190;DHT22;1606;51.946;10.558;2024-01-07T07:31:36;1.50;99.90
3190;DHT22;1606;51.946;10.558;2024-01-07T07:34:05;1.50;99.90
3190;DHT22;1606;51.946;10.558;2024-01-07T07:36:34;1.50;99.90
3190;DHT22;1606;51.946;10.558;2024-01-07T07:39:02;1.30;99.90
3190;DHT22;1606;51.946;10.558;2024-01-07T07:41:30;1.20;99.90
3190;DHT22;1606;51.946;10.558;2024-01-07T07:43:58;1.20;99.90
3190;DHT22;1606;51.946;10.558;2024-01-07T07:46:26;1.30;99.90
3190;DHT22;1606;51.946;10.558;2024-01-07T07:48:54;1.30;99.90
3190;DHT22;1606;51.946;10.558;2024-01-07T07:51:22;1.20;99.90
3190;DHT22;1606;51.946;10.558;2024-01-07T07:53:50;1.20;99.90
3190;DHT22;1606;51.946;10.558;2024-01-07T07:56:18;1.20;99.90
3190;DHT22;1606;51.946;10.558;2024-01-07T07:58:46;1.20;99.90
3190;DHT22;1606;51.946;10.558;2024-01-07T08:01:14;1.20;99.90
3190;DHT22;1606;51.946;10.558;2024-01-07T08:03:42;1.20;99.90
3190;DHT22;1606;51.946;10.558;2024-01-07T08:06:10;1.20;99.90
3190;DHT22;1606;51.946;10.558;2024-01-07T08:08:38;1.20;99.90
3190;DHT22;1606;51.946;10.558;2024-01-07T08:11:07;1.30;99.90
3190;DHT22;1606;51.946;10.558;2024-01-07T08:13:36;1.50;99.90
3190;DHT22;1606;51.946;10.558;2024-01-07T08:16:05;1.60;99.90
3190;DHT22;1606;51.946;10.558;2024-01-07T08:18:33;1.50;99.90
3190;DHT22;1606;51.946;10.558;2024-01-07T08:21:01;1.40;99.90
3190;DHT22;1606;51.946;10.558;2024-01-07T08:23:28;1.40;99.90
3190;DHT22;1606;51.946;10.558;2024-01-07T08:25:56;1.60;99.90
3190;DHT22;1606;51.946;10.558;2024-01-07T08:28:25;1.50;99.90
3190;DHT22;1606;51.946;10.558;2024-01-07T08:30:53;1.50;99.90
3190;DHT22;1606;51.946;10.558;2024-01-07T08:33:22;1.60;99.90
3190;DHT22;1606;51.946;10.558;2024-01-07T08:35:51;1.80;99.90
3190;DHT22;1606;51.946;10.558;2024-01-07T08:38:18;1.80;99.90
3190;DHT22;1606;51.946;10.558;2024-01-07T08:40:46;1.80;99.90
3190;DHT22;1606;51.946;10.558;2024-01-07T08:43:14;1.80;99.90
3190;DHT22;1606;51.946;10.558;2024-01-07T08:45:43;1.90;99.90
3190;DHT22;1606;51.946;10.558;2024-01-07T08:48:11;1.70;99.90
3190;DHT22;1606;51.946;10.558;2024-01-07T08:50:39;1.40;99.90
3190;DHT22;1606;51.946;10.558;2024-01-07T08:53:07;1.50;99.90
3190;DHT22;1606;51.946;10.558;2024-01-07T08:55:35;1.60;99.90
3190;DHT22;1606;51.946;10.558;2024-01-07T08:58:03;1.70;99.90
3190;DHT22;1606;51.946;10.558;2024-01-07T09:00:31;1.60;99.90
3190;DHT22;1606;51.946;10.558;2024-01-07T09:03:00;1.70;99.90
3190;DHT22;1606;51.946;10.558;2024-01-07T09:05:28;2.00;99.90
3190;DHT22;1606;51.946;10.558;2024-01-07T09:07:56;1.90;99.90
3190;DHT22;1606;51.946;10.558;2024-01-07T09:10:23;2.00;99.90
3190;DHT22;1606;51.946;10.558;2024-01-07T09:12:53;1.90;99.90
3190;DHT22;1606;51.946;10.558;2024-01-07T09:15:21;1.90;99.90
3190;DHT22;1606;51.946;10.558;2024-01-07T09:17:49;1.80;99.90
3190;DHT22;1606;51.946;10.558;2024-01-07T09:20:18;1.80;99.90
3190;DHT22;1606;51.946;10.558;2024-01-07T09:22:46;1.90;99.90
3190;DHT22;1606;51.946;10.558;2024-01-07T09:25:15;1.90;99.90
3190;DHT22;1606;51.946;10.558;2024-01-07T09:27:43;1.80;99.90
3190;DHT22;1606;51.946;10.558;2024-01-07T09:30:12;1.90;99.90
3190;DHT22;1606;51.946;10.558;2024-01-07T09:32:41;2.00;99.90
3190;DHT22;1606;51.946;10.558;2024-01-07T09:35:09;1.90;99.90
3190;DHT22;1606;51.946;10.558;2024-01-07T09:37:38;1.90;99.90
3190;DHT22;1606;51.946;10.558;2024-01-07T09:40:07;1.90;99.90
3190;DHT22;1606;51.946;10.558;2024-01-07T09:42:35;2.00;99.90
3190;DHT22;1606;51.946;10.558;2024-01-07T09:45:04;2.10;99.90
3190;DHT22;1606;51.946;10.558;2024-01-07T09:47:32;2.20;99.90
3190;DHT22;1606;51.946;10.558;2024-01-07T09:50:00;2.00;99.90
3190;DHT22;1606;51.946;10.558;2024-01-07T09:52:28;2.00;99.90
3190;DHT22;1606;51.946;10.558;2024-01-07T09:55:00;2.10;99.90
3190;DHT22;1606;51.946;10.558;2024-01-07T09:57:30;2.10;99.90
3190;DHT22;1606;51.946;10.558;2024-01-07T10:00:00;2.10;99.90
3190;DHT22;1606;51.946;10.558;2024-01-07T10:02:28;2.30;99.90
3190;DHT22;1606;51.946;10.558;2024-01-07T10:04:56;2.20;99.90
3190;DHT22;1606;51.946;10.558;2024-01-07T10:07:24;2.20;99.90
3190;DHT22;1606;51.946;10.558;2024-01-07T10:09:52;2.10;99.90
3190;DHT22;1606;51.946;10.558;2024-01-07T10:12:24;1.90;99.90
3190;DHT22;1606;51.946;10.558;2024-01-07T10:14:53;1.90;99.90
3190;DHT22;1606;51.946;10.558;2024-01-07T10:17:20;2.00;99.90
3190;DHT22;1606;51.946;10.558;2024-01-07T10:19:54;2.20;99.90
3190;DHT22;1606;51.946;10.558;2024-01-07T10:22:22;2.20;99.90
3190;DHT22;1606;51.946;10.558;2024-01-07T10:24:51;2.20;99.90
3190;DHT22;1606;51.946;10.558;2024-01-07T10:27:19;2.20;99.90
3190;DHT22;1606;51.946;10.558;2024-01-07T10:29:51;2.20;99.90
3190;DHT22;1606;51.946;10.558;2024-01-07T10:32:21;2.30;99.90
3190;DHT22;1606;51.946;10.558;2024-01-07T10:34:51;2.20;99.90
3190;DHT22;1606;51.946;10.558;2024-01-07T10:37:23;2.00;99.90
3190;DHT22;1606;51.946;10.558;2024-01-07T10:39:51;2.10;99.90
3190;DHT22;1606;51.946;10.558;2024-01-07T10:42:19;2.30;99.90
3190;DHT22;1606;51.946;10.558;2024-01-07T10:44:47;2.40;99.90
3190;DHT22;1606;51.946;10.558;2024-01-07T10:47:18;2.30;99.90
3190;DHT22;1606;51.946;10.558;2024-01-07T10:49:50;2.30;99.90
3190;DHT22;1606;51.946;10.558;2024-01-07T10:52:19;2.30;99.90
3190;DHT22;1606;51.946;10.558;2024-01-07T10:54:47;2.30;99.90
3190;DHT22;1606;51.946;10.558;2024-01-07T10:57:21;2.20;99.90
3190;DHT22;1606;51.946;10.558;2024-01-07T10:59:50;2.20;99.90
3190;DHT22;1606;51.946;10.558;2024-01-07T11:02:22;2.10;99.90
3190;DHT22;1606;51.946;10.558;2024-01-07T11:04:56;2.10;99.90
3190;DHT22;1606;51.946;10.558;2024-01-07T11:07:31;2.10;99.90
3190;DHT22;1606;51.946;10.558;2024-01-07T11:10:08;1.90;99.90
3190;DHT22;1606;51.946;10.558;2024-01-07T11:12:36;1.90;99.90
3190;DHT22;1606;51.946;10.558;2024-01-07T11:15:04;2.00;99.90
3190;DHT22;1606;51.946;10.558;2024-01-07T11:17:43;2.10;99.90
3190;DHT22;1606;51.946;10.558;2024-01-07T11:20:18;2.10;99.90
3190;DHT22;1606;51.946;10.558;2024-01-07T11:22:46;2.20;99.90
3190;DHT22;1606;51.946;10.558;2024-01-07T11:25:31;2.20;99.90
3190;DHT22;1606;51.946;10.558;2024-01-07T11:28:01;2.30;99.90
3190;DHT22;1606;51.946;10.558;2024-01-07T11:30:29;2.30;99.90
3190;DHT22;1606;51.946;10.558;2024-01-07T11:32:59;2.30;99.90
3190;DHT22;1606;51.946;10.558;2024-01-07T11:35:55;2.30;99.90
3190;DHT22;1606;51.946;10.558;2024-01-07T11:38:24;2.30;99.90
3190;DHT22;1606;51.946;10.558;2024-01-07T11:40:52;2.30;99.90
3190;DHT22;1606;51.946;10.558;2024-01-07T11:43:20;2.30;99.90
3190;DHT22;1606;51.946;10.558;2024-01-07T11:45:49;2.50;99.90
3190;DHT22;1606;51.946;10.558;2024-01-07T11:48:19;2.60;99.90
3190;DHT22;1606;51.946;10.558;2024-01-07T11:50:47;2.50;99.90
3190;DHT22;1606;51.946;10.558;2024-01-07T11:53:19;2.40;99.90
3190;DHT22;1606;51.946;10.558;2024-01-07T11:55:46;2.40;99.90
3190;DHT22;1606;51.946;10.558;2024-01-07T11:58:15;2.40;99.90
3190;DHT22;1606;51.946;10.558;2024-01-07T12:00:42;2.50;99.90
3190;DHT22;1606;51.946;10.558;2024-01-07T12:03:10;2.60;99.90
3190;DHT22;1606;51.946;10.558;2024-01-07T12:05:40;2.70;99.90
3190;DHT22;1606;51.946;10.558;2024-01-07T12:08:10;2.50;99.90
3190;DHT22;1606;51.946;10.558;2024-01-07T12:10:38;2.60;99.90
3190;DHT22;1606;51.946;10.558;2024-01-07T12:13:06;2.70;99.90
3190;DHT22;1606;51.946;10.558;2024-01-07T12:15:35;2.90;99.90
3190;DHT22;1606;51.946;10.558;2024-01-07T12:18:04;2.90;99.90
3190;DHT22;1606;51.946;10.558;2024-01-07T12:20:32;2.80;99.90
3190;DHT22;1606;51.946;10.558;2024-01-07T12:23:07;2.80;99.90
3190;DHT22;1606;51.946;10.558;2024-01-07T12:25:35;2.50;99.90
3190;DHT22;1606;51.946;10.558;2024-01-07T12:28:06;2.40;99.90
3190;DHT22;1606;51.946;10.558;2024-01-07T12:30:36;2.40;99.90
3190;DHT22;1606;51.946;10.558;2024-01-07T12:33:05;2.60;99.90
3190;DHT22;1606;51.946;10.558;2024-01-07T12:35:34;2.50;99.90
3190;DHT22;1606;51.946;10.558;2024-01-07T12:38:02;2.30;99.90
3190;DHT22;1606;51.946;10.558;2024-01-07T12:40:31;2.20;99.90
3190;DHT22;1606;51.946;10.558;2024-01-07T12:42:59;2.40;99.90
3190;DHT22;1606;51.946;10.558;2024-01-07T12:45:27;2.40;99.90
3190;DHT22;1606;51.946;10.558;2024-01-07T12:47:54;2.50;99.90
3190;DHT22;1606;51.946;10.558;2024-01-07T12:50:25;2.50;99.90
3190;DHT22;1606;51.946;10.558;2024-01-07T12:52:54;2.50;99.90
3190;DHT22;1606;51.946;10.558;2024-01-07T12:55:22;2.40;99.90
3190;DHT22;1606;51.946;10.558;2024-01-07T12:57:53;2.20;99.90
3190;DHT22;1606;51.946;10.558;2024-01-07T13:00:21;2.40;99.90
3190;DHT22;1606;51.946;10.558;2024-01-07T13:02:49;2.50;99.90
3190;DHT22;1606;51.946;10.558;2024-01-07T13:05:17;2.50;99.90
3190;DHT22;1606;51.946;10.558;2024-01-07T13:07:46;2.50;99.90
3190;DHT22;1606;51.946;10.558;2024-01-07T13:10:14;2.60;99.90
3190;DHT22;1606;51.946;10.558;2024-01-07T13:12:42;2.50;99.90
3190;DHT22;1606;51.946;10.558;2024-01-07T13:15:17;2.40;99.90
3190;DHT22;1606;51.946;10.558;2024-01-07T13:17:46;2.40;99.90
3190;DHT22;1606;51.946;10.558;2024-01-07T13:20:14;2.50;99.90
3190;DHT22;1606;51.946;10.558;2024-01-07T13:22:42;2.50;99.90
3190;DHT22;1606;51.946;10.558;2024-01-07T13:25:09;2.50;99.90
3190;DHT22;1606;51.946;10.558;2024-01-07T13:27:37;2.50;99.90
3190;DHT22;1606;51.946;10.558;2024-01-07T13:30:07;2.30;99.90
3190;DHT22;1606;51.946;10.558;2024-01-07T13:32:36;2.20;99.90
3190;DHT22;1606;51.946;10.558;2024-01-07T13:35:05;2.20;99.90
3190;DHT22;1606;51.946;10.558;2024-01-07T13:37:37;2.30;99.90
3190;DHT22;1606;51.946;10.558;2024-01-07T13:40:05;2.30;99.90
3190;DHT22;1606;51.946;10.558;2024-01-07T13:42:36;2.20;99.90
3190;DHT22;1606;51.946;10.558;2024-01-07T13:45:05;2.30;99.90
3190;DHT22;1606;51.946;10.558;2024-01-07T13:47:33;2.30;99.90
3190;DHT22;1606;51.946;10.558;2024-01-07T13:50:04;2.20;99.90
3190;DHT22;1606;51.946;10.558;2024-01-07T13:52:33;2.20;99.90
3190;DHT22;1606;51.946;10.558;2024-01-07T13:55:01;2.30;99.90
3190;DHT22;1606;51.946;10.558;2024-01-07T13:57:29;2.30;99.90
3190;DHT22;1606;51.946;10.558;2024-01-07T13:59:58;2.50;99.90
3190;DHT22;1606;51.946;10.558;2024-01-07T14:02:26;2.50;99.90
3190;DHT22;1606;51.946;10.558;2024-01-07T14:04:53;2.30;99.90
3190;DHT22;1606;51.946;10.558;2024-01-07T14:07:23;2.30;99.90
3190;DHT22;1606;51.946;10.558;2024-01-07T14:09:53;2.30;99.90
3190;DHT22;1606;51.946;10.558;2024-01-07T14:12:21;2.40;99.90
3190;DHT22;1606;51.946;10.558;2024-01-07T14:14:49;2.40;99.90
3190;DHT22;1606;51.946;10.558;2024-01-07T14:17:17;2.40;99.90
3190;DHT22;1606;51.946;10.558;2024-01-07T14:19:44;2.50;99.90
3190;DHT22;1606;51.946;10.558;2024-01-07T14:22:14;2.40;99.90
3190;DHT22;1606;51.946;10.558;2024-01-07T14:24:44;2.30;99.90
3190;DHT22;1606;51.946;10.558;2024-01-07T14:27:14;2.40;99.90
3190;DHT22;1606;51.946;10.558;2024-01-07T14:29:42;2.60;99.90
3190;DHT22;1606;51.946;10.558;2024-01-07T14:32:10;2.70;99.90
3190;DHT22;1606;51.946;10.558;2024-01-07T14:34:38;2.60;99.90
3190;DHT22;1606;51.946;10.558;2024-01-07T14:37:08;2.70;99.90
3190;DHT22;1606;51.946;10.558;2024-01-07T14:39:37;2.60;99.90
3190;DHT22;1606;51.946;10.558;2024-01-07T14:42:06;2.60;99.90
3190;DHT22;1606;51.946;10.558;2024-01-07T14:44:34;2.60;99.90
3190;DHT22;1606;51.946;10.558;2024-01-07T14:47:13;2.50;99.90
3190;DHT22;1606;51.946;10.558;2024-01-07T14:49:42;2.60;99.90
3190;DHT22;1606;51.946;10.558;2024-01-07T14:52:10;2.80;99.90
3190;DHT22;1606;51.946;10.558;2024-01-07T14:54:38;2.80;99.90
3190;DHT22;1606;51.946;10.558;2024-01-07T14:57:07;3.00;99.90
3190;DHT22;1606;51.946;10.558;2024-01-07T14:59:36;3.00;99.90
3190;DHT22;1606;51.946;10.558;2024-01-07T15:02:04;2.90;99.90
3190;DHT22;1606;51.946;10.558;2024-01-07T15:04:34;3.00;99.90
3190;DHT22;1606;51.946;10.558;2024-01-07T15:07:02;3.10;99.90
3190;DHT22;1606;51.946;10.558;2024-01-07T15:09:31;2.80;99.90
3190;DHT22;1606;51.946;10.558;2024-01-07T15:11:59;2.90;99.90
3190;DHT22;1606;51.946;10.558;2024-01-07T15:14:29;3.00;99.90
3190;DHT22;1606;51.946;10.558;2024-01-07T15:16:56;3.20;99.90
3190;DHT22;1606;51.946;10.558;2024-01-07T15:19:25;3.40;99.90
3190;DHT22;1606;51.946;10.558;2024-01-07T15:21:53;3.30;99.90
3190;DHT22;1606;51.946;10.558;2024-01-07T15:24:21;3.30;99.90
3190;DHT22;1606;51.946;10.558;2024-01-07T15:26:49;3.00;99.90
3190;DHT22;1606;51.946;10.558;2024-01-07T15:29:17;2.60;99.90
3190;DHT22;1606;51.946;10.558;2024-01-07T15:31:47;2.50;99.90
3190;DHT22;1606;51.946;10.558;2024-01-07T15:34:15;2.60;99.90
3190;DHT22;1606;51.946;10.558;2024-01-07T15:36:43;2.80;99.90
3190;DHT22;1606;51.946;10.558;2024-01-07T15:39:11;2.80;99.90
3190;DHT22;1606;51.946;10.558;2024-01-07T15:41:39;2.60;99.90
3190;DHT22;1606;51.946;10.558;2024-01-07T15:44:07;2.50;99.90
3190;DHT22;1606;51.946;10.558;2024-01-07T15:46:35;2.30;99.90
3190;DHT22;1606;51.946;10.558;2024-01-07T15:49:04;2.10;99.90
3190;DHT22;1606;51.946;10.558;2024-01-07T15:51:32;2.10;99.90
3190;DHT22;1606;51.946;10.558;2024-01-07T15:54:00;2.00;99.90
3190;DHT22;1606;51.946;10.558;2024-01-07T15:56:27;2.00;99.90
3190;DHT22;1606;51.946;10.558;2024-01-07T15:58:55;2.30;99.90
3190;DHT22;1606;51.946;10.558;2024-01-07T16:01:23;2.60;99.90
3190;DHT22;1606;51.946;10.558;2024-01-07T16:03:51;2.80;99.90
3190;DHT22;1606;51.946;10.558;2024-01-07T16:06:20;2.90;99.90
3190;DHT22;1606;51.946;10.558;2024-01-07T16:08:48;2.80;99.90
3190;DHT22;1606;51.946;10.558;2024-01-07T16:11:16;2.70;99.90